createdAt,value
2019-06-07T00:00:37.577Z,99.90
2019-06-07T00:03:05.272Z,99.90
2019-06-07T00:05:57.915Z,99.90
2019-06-07T00:08:35.485Z,99.90
2019-06-07T00:11:15.617Z,99.90
2019-06-07T00:13:45.749Z,99.90
2019-06-07T00:16:33.651Z,99.90
2019-06-07T00:19:07.913Z,99.90
2019-06-07T00:27:53.569Z,99.90
2019-06-07T00:33:56.277Z,99.90
2019-06-07T00:36:23.917Z,99.90
2019-06-07T00:38:54.176Z,99.90
2019-06-07T00:41:23.622Z,99.90
2019-06-07T00:43:55.167Z,99.90
2019-06-07T00:46:25.463Z,99.90
2019-06-07T00:49:29.567Z,99.90
2019-06-07T00:51:51.657Z,99.90
2019-06-07T00:54:21.486Z,99.90
2019-06-07T00:56:51.551Z,99.90
2019-06-07T00:59:24.384Z,99.90
2019-06-07T01:01:51.483Z,99.90
2019-06-07T01:04:22.826Z,99.90
2019-06-07T01:06:50.671Z,99.90
2019-06-07T01:09:20.293Z,99.90
2019-06-07T01:11:48.548Z,99.90
2019-06-07T01:14:30.140Z,99.90
2019-06-07T01:17:18.561Z,99.90
2019-06-07T01:19:29.354Z,99.90
2019-06-07T01:21:58.508Z,99.90
2019-06-07T01:24:28.036Z,99.90
2019-06-07T01:26:56.030Z,99.90
2019-06-07T01:29:29.489Z,99.90
2019-06-07T01:31:55.360Z,99.90
2019-06-07T01:34:26.589Z,99.90
2019-06-07T01:36:54.708Z,99.90
2019-06-07T01:39:24.679Z,99.90
2019-06-07T01:41:50.932Z,99.90
2019-06-07T01:47:02.722Z,99.90
2019-06-07T01:49:30.121Z,99.90
2019-06-07T01:52:02.071Z,99.90
2019-06-07T01:56:58.507Z,99.90
2019-06-07T01:59:28.476Z,99.90
2019-06-07T02:01:55.747Z,99.90
2019-06-07T02:04:24.931Z,99.90
2019-06-07T02:06:52.754Z,99.90
2019-06-07T02:09:24.160Z,99.90
2019-06-07T02:11:53.277Z,99.90
2019-06-07T02:14:25.787Z,99.90
2019-06-07T02:16:55.840Z,99.90
2019-06-07T02:19:24.296Z,99.90
2019-06-07T02:21:56.749Z,99.90
2019-06-07T02:24:29.640Z,99.90
2019-06-07T02:27:00.516Z,99.90
2019-06-07T02:29:33.382Z,99.90
2019-06-07T02:32:00.151Z,99.90
2019-06-07T02:34:37.877Z,99.90
2019-06-07T02:37:02.380Z,99.90
2019-06-07T02:39:34.513Z,99.90
2019-06-07T02:41:59.914Z,99.90
2019-06-07T02:44:32.320Z,99.90
2019-06-07T02:46:58.425Z,99.90
2019-06-07T02:49:33.449Z,99.90
2019-06-07T02:51:57.828Z,99.90
2019-06-07T02:54:32.415Z,99.90
2019-06-07T02:56:58.930Z,99.90
2019-06-07T02:59:47.213Z,99.90
2019-06-07T03:01:55.183Z,99.90
2019-06-07T03:04:22.628Z,99.90
2019-06-07T03:07:00.638Z,99.90
2019-06-07T03:09:30.896Z,99.90
2019-06-07T03:12:00.833Z,99.90
2019-06-07T03:14:32.510Z,99.90
2019-06-07T03:17:22.418Z,99.90
2019-06-07T03:19:51.452Z,99.90
2019-06-07T03:22:19.094Z,99.90
2019-06-07T03:24:48.470Z,99.90
2019-06-07T03:27:34.985Z,99.90
2019-06-07T03:29:46.507Z,99.90
2019-06-07T03:32:14.469Z,99.90
2019-06-07T03:34:43.718Z,99.90
2019-06-07T03:37:11.245Z,99.90
2019-06-07T03:39:40.939Z,99.90
2019-06-07T03:42:10.622Z,99.90
2019-06-07T03:44:40.631Z,99.90
2019-06-07T03:47:30.630Z,99.90
2019-06-07T03:49:57.114Z,99.90
2019-06-07T03:52:37.118Z,99.90
2019-06-07T03:55:01.746Z,99.90
2019-06-07T03:58:23.786Z,99.90
2019-06-07T04:00:05.887Z,99.90
2019-06-07T04:02:40.848Z,99.90
2019-06-07T04:05:04.835Z,99.90
2019-06-07T04:07:44.353Z,99.90
2019-06-07T04:10:10.156Z,99.90
2019-06-07T04:12:39.973Z,99.90
2019-06-07T04:15:07.326Z,99.90
2019-06-07T04:17:44.613Z,99.90
2019-06-07T04:20:07.626Z,99.90
2019-06-07T04:22:39.848Z,99.90
2019-06-07T04:25:13.902Z,99.90
2019-06-07T04:30:51.182Z,99.90
2019-06-07T04:33:20.750Z,99.90
2019-06-07T04:35:49.843Z,99.90
2019-06-07T04:38:22.489Z,99.90
2019-06-07T04:40:51.443Z,99.90
2019-06-07T04:43:19.257Z,99.90
2019-06-07T04:45:51.023Z,99.90
2019-06-07T04:48:19.591Z,99.90
2019-06-07T04:50:55.276Z,99.90
2019-06-07T04:53:51.187Z,99.90
2019-06-07T04:56:20.857Z,99.90
2019-06-07T04:58:55.482Z,99.90
2019-06-07T05:01:27.690Z,99.90
2019-06-07T05:03:55.446Z,99.90
2019-06-07T05:06:22.766Z,99.90
2019-06-07T05:08:51.067Z,99.90
2019-06-07T05:11:19.785Z,99.90
2019-06-07T05:13:47.941Z,99.90
2019-06-07T05:16:18.472Z,99.90
2019-06-07T05:18:45.441Z,99.90
2019-06-07T05:21:15.712Z,99.90
2019-06-07T05:26:30.658Z,99.90
2019-06-07T05:29:26.799Z,99.90
2019-06-07T05:32:15.210Z,99.90
2019-06-07T05:34:47.123Z,99.90
2019-06-07T05:37:12.512Z,99.90
2019-06-07T05:39:42.491Z,99.90
2019-06-07T05:42:09.602Z,99.90
2019-06-07T05:45:04.816Z,99.90
2019-06-07T05:47:50.374Z,99.90
2019-06-07T05:50:38.508Z,99.90
2019-06-07T05:52:46.882Z,99.90
2019-06-07T05:55:21.667Z,99.90
2019-06-07T05:57:54.417Z,99.90
2019-06-07T06:00:31.620Z,99.90
2019-06-07T06:03:05.669Z,99.90
2019-06-07T06:05:42.443Z,99.90
2019-06-07T06:08:05.148Z,99.90
2019-06-07T06:10:39.788Z,99.90
2019-06-07T06:13:06.924Z,99.90
2019-06-07T06:15:47.403Z,99.90
2019-06-07T06:18:06.439Z,99.90
2019-06-07T06:20:54.488Z,99.90
2019-06-07T06:23:04.113Z,99.90
2019-06-07T06:25:35.006Z,99.90
2019-06-07T06:28:11.756Z,99.90
2019-06-07T06:30:38.572Z,99.90
2019-06-07T06:33:27.073Z,99.90
2019-06-07T06:35:47.395Z,99.90
2019-06-07T06:38:15.173Z,99.90
2019-06-07T06:41:11.679Z,99.90
2019-06-07T06:43:21.085Z,99.90
2019-06-07T06:45:51.408Z,99.90
2019-06-07T06:48:19.148Z,99.90
2019-06-07T06:50:50.123Z,99.90
2019-06-07T06:53:19.121Z,99.90
2019-06-07T06:55:51.173Z,99.90
2019-06-07T06:58:19.671Z,99.90
2019-06-07T07:00:56.981Z,99.90
2019-06-07T07:03:57.571Z,99.90
2019-06-07T07:05:54.532Z,99.90
2019-06-07T07:08:26.839Z,99.90
2019-06-07T07:10:56.462Z,99.90
2019-06-07T07:13:24.722Z,99.90
2019-06-07T07:15:57.931Z,99.90
2019-06-07T07:18:29.533Z,99.90
2019-06-07T07:21:03.782Z,99.90
2019-06-07T07:24:14.526Z,99.90
2019-06-07T07:26:22.919Z,99.90
2019-06-07T07:32:12.219Z,99.90
2019-06-07T07:34:46.011Z,99.90
2019-06-07T07:37:14.580Z,99.90
2019-06-07T07:39:45.317Z,99.90
2019-06-07T07:42:20.870Z,99.90
2019-06-07T07:44:41.625Z,99.90
2019-06-07T07:47:11.388Z,99.90
2019-06-07T07:49:41.120Z,99.90
2019-06-07T07:52:08.323Z,99.90
2019-06-07T07:54:36.260Z,99.90
2019-06-07T07:57:03.210Z,99.90
2019-06-07T07:59:41.953Z,99.90
2019-06-07T08:01:59.333Z,99.90
2019-06-07T08:05:11.991Z,99.90
2019-06-07T08:07:06.669Z,99.90
2019-06-07T08:09:34.742Z,99.90
2019-06-07T08:12:02.602Z,99.90
2019-06-07T08:14:33.341Z,99.90
2019-06-07T08:17:10.861Z,99.90
2019-06-07T08:19:39.222Z,99.90
2019-06-07T08:22:09.779Z,99.90
2019-06-07T08:24:44.594Z,99.90
2019-06-07T08:27:25.734Z,99.90
2019-06-07T08:30:25.887Z,99.90
2019-06-07T08:32:37.906Z,99.90
2019-06-07T08:35:07.204Z,99.90
2019-06-07T08:38:14.212Z,99.90
2019-06-07T08:40:05.438Z,99.90
2019-06-07T08:42:37.242Z,99.90
2019-06-07T08:45:05.625Z,99.90
2019-06-07T08:47:32.250Z,99.90
2019-06-07T08:50:07.453Z,99.90
2019-06-07T08:52:34.747Z,99.90
2019-06-07T08:55:04.966Z,99.90
2019-06-07T08:57:32.159Z,99.90
2019-06-07T09:00:06.556Z,99.90
2019-06-07T09:02:32.141Z,99.90
2019-06-07T09:05:18.468Z,99.90
2019-06-07T09:07:45.538Z,99.90
2019-06-07T09:10:15.505Z,99.90
2019-06-07T09:12:45.759Z,99.90
2019-06-07T09:15:22.926Z,99.90
2019-06-07T09:18:30.083Z,99.90
2019-06-07T09:20:36.470Z,99.90
2019-06-07T09:22:57.767Z,99.90
2019-06-07T09:25:23.769Z,99.90
2019-06-07T09:27:52.283Z,99.90
2019-06-07T09:30:39.331Z,99.90
2019-06-07T09:33:09.829Z,99.90
2019-06-07T09:35:39.885Z,99.90
2019-06-07T09:38:23.182Z,99.90
2019-06-07T09:40:40.258Z,99.90
2019-06-07T09:43:55.297Z,99.90
2019-06-07T09:45:36.114Z,99.90
2019-06-07T09:48:47.607Z,99.90
2019-06-07T09:50:46.803Z,99.90
2019-06-07T09:53:22.615Z,99.90
2019-06-07T09:55:50.834Z,99.90
2019-06-07T10:00:51.643Z,99.90
2019-06-07T10:03:22.712Z,99.90
2019-06-07T10:05:51.418Z,99.90
2019-06-07T10:09:31.565Z,99.90
2019-06-07T10:10:51.230Z,99.90
2019-06-07T10:13:22.324Z,99.90
2019-06-07T10:16:02.779Z,99.90
2019-06-07T10:18:35.547Z,99.90
2019-06-07T10:21:03.841Z,99.90
2019-06-07T10:23:35.542Z,99.90
2019-06-07T10:26:10.108Z,99.90
2019-06-07T10:28:39.168Z,99.90
2019-06-07T10:31:11.506Z,99.90
2019-06-07T10:33:40.282Z,99.90
2019-06-07T10:36:12.342Z,99.90
2019-06-07T10:38:42.801Z,99.90
2019-06-07T10:41:11.098Z,99.90
2019-06-07T10:43:41.028Z,99.90
2019-06-07T10:46:12.109Z,99.90
2019-06-07T10:48:44.600Z,99.90
2019-06-07T10:51:14.585Z,99.90
2019-06-07T10:53:43.397Z,99.90
2019-06-07T10:56:11.183Z,99.90
2019-06-07T10:58:38.974Z,99.90
2019-06-07T11:01:07.356Z,99.90
2019-06-07T11:03:38.434Z,99.90
2019-06-07T11:06:07.934Z,99.90
2019-06-07T11:08:38.943Z,99.90
2019-06-07T11:11:10.091Z,99.90
2019-06-07T11:13:45.341Z,99.90
2019-06-07T11:16:13.062Z,99.90
2019-06-07T11:18:41.682Z,99.90
2019-06-07T11:21:14.309Z,99.90
2019-06-07T11:23:41.931Z,99.90
2019-06-07T11:26:10.319Z,99.90
2019-06-07T11:28:38.334Z,99.90
2019-06-07T11:31:06.810Z,99.90
2019-06-07T11:33:34.157Z,99.90
2019-06-07T11:36:02.173Z,99.90
2019-06-07T11:38:29.561Z,99.90
2019-06-07T11:40:57.727Z,99.90
2019-06-07T11:43:27.538Z,99.90
2019-06-07T11:46:05.150Z,99.90
2019-06-07T11:48:58.383Z,99.90
2019-06-07T11:51:42.925Z,99.90
2019-06-07T11:54:11.774Z,99.90
2019-06-07T11:56:39.319Z,99.90
2019-06-07T11:59:07.060Z,99.90
2019-06-07T12:01:37.263Z,99.90
2019-06-07T12:04:04.163Z,99.90
2019-06-07T12:09:01.410Z,99.90
2019-06-07T12:11:32.017Z,99.90
2019-06-07T12:14:00.969Z,99.90
2019-06-07T12:16:37.656Z,99.90
2019-06-07T12:19:13.555Z,99.90
2019-06-07T12:21:53.009Z,99.90
2019-06-07T12:24:21.231Z,99.90
2019-06-07T12:26:49.469Z,99.90
2019-06-07T12:29:17.412Z,99.90
2019-06-07T12:31:45.877Z,99.90
2019-06-07T12:34:17.478Z,99.90
2019-06-07T12:36:45.578Z,99.90
2019-06-07T12:39:13.916Z,99.90
2019-06-07T12:41:41.664Z,99.90
2019-06-07T12:44:12.490Z,99.90
2019-06-07T12:46:39.965Z,99.90
2019-06-07T12:49:08.622Z,99.90
2019-06-07T12:51:36.805Z,99.90
2019-06-07T12:54:04.054Z,99.90
2019-06-07T12:56:31.911Z,99.90
2019-06-07T12:58:59.602Z,99.90
2019-06-07T13:01:26.783Z,99.90
2019-06-07T13:03:57.411Z,99.90
2019-06-07T13:06:24.874Z,98.30
2019-06-07T13:08:51.806Z,98.10
2019-06-07T13:11:24.214Z,98.70
2019-06-07T13:13:51.748Z,96.80
2019-06-07T13:16:22.076Z,95.10
2019-06-07T13:18:49.413Z,93.20
2019-06-07T13:21:18.186Z,91.00
2019-06-07T13:23:45.358Z,88.80
2019-06-07T13:26:12.744Z,83.30
2019-06-07T13:28:40.185Z,84.00
2019-06-07T13:31:07.698Z,87.00
2019-06-07T13:34:01.509Z,88.80
2019-06-07T13:36:28.947Z,88.50
2019-06-07T13:39:04.984Z,85.20
2019-06-07T13:41:43.193Z,85.70
2019-06-07T13:44:16.709Z,83.80
2019-06-07T13:46:46.404Z,83.90
2019-06-07T13:49:14.160Z,83.60
2019-06-07T13:51:43.328Z,84.90
2019-06-07T13:54:10.554Z,86.50
2019-06-07T13:56:59.748Z,90.10
2019-06-07T13:59:12.697Z,87.40
2019-06-07T14:01:48.423Z,83.40
2019-06-07T14:04:27.078Z,83.70
2019-06-07T14:07:02.830Z,82.00
2019-06-07T14:09:30.086Z,78.80
2019-06-07T14:11:58.788Z,80.10
2019-06-07T14:14:29.495Z,78.60
2019-06-07T14:16:57.793Z,77.00
2019-06-07T14:19:26.415Z,79.40
2019-06-07T14:21:53.989Z,79.20
2019-06-07T14:24:22.833Z,79.70
2019-06-07T14:27:08.182Z,76.30
2019-06-07T14:32:42.466Z,76.00
2019-06-07T14:35:22.472Z,74.30
2019-06-07T14:38:05.098Z,72.20
2019-06-07T14:40:38.259Z,72.60
2019-06-07T14:46:01.637Z,73.90
2019-06-07T14:48:34.770Z,74.80
2019-06-07T14:51:19.348Z,75.90
2019-06-07T14:54:14.900Z,78.40
2019-06-07T15:11:28.856Z,70.20
2019-06-07T15:14:19.006Z,70.50
2019-06-07T15:17:02.999Z,70.70
2019-06-07T15:19:37.194Z,69.90
2019-06-07T15:22:53.394Z,68.70
2019-06-07T15:25:48.313Z,70.30
2019-06-07T15:28:48.907Z,69.60
2019-06-07T15:32:01.850Z,69.40
2019-06-07T15:38:31.081Z,69.30
2019-06-07T15:41:37.190Z,68.60
2019-06-07T15:44:35.632Z,68.80
2019-06-07T15:47:47.961Z,73.70
2019-06-07T15:50:20.122Z,72.50
2019-06-07T15:55:55.879Z,76.00
2019-06-07T16:01:27.337Z,77.00
2019-06-07T16:04:05.043Z,77.00
2019-06-07T16:10:00.192Z,75.80
2019-06-07T16:12:34.671Z,72.60
2019-06-07T16:15:13.264Z,71.50
2019-06-07T16:18:15.281Z,70.60
2019-06-07T16:21:13.121Z,76.10
2019-06-07T16:23:49.268Z,74.10
2019-06-07T16:26:17.213Z,70.90
2019-06-07T16:28:44.722Z,71.40
2019-06-07T16:31:11.908Z,71.50
2019-06-07T16:33:38.983Z,71.20
2019-06-07T16:36:06.681Z,71.60
2019-06-07T16:38:42.339Z,72.40
2019-06-07T16:41:11.494Z,71.80
2019-06-07T16:43:40.541Z,72.00
2019-06-07T16:46:11.535Z,71.10
2019-06-07T16:48:39.217Z,72.90
2019-06-07T16:51:13.124Z,72.00
2019-06-07T16:53:42.523Z,73.10
2019-06-07T16:56:14.557Z,72.80
2019-06-07T16:58:46.844Z,73.00
2019-06-07T17:01:18.310Z,74.30
2019-06-07T17:03:48.299Z,74.30
2019-06-07T17:06:19.466Z,74.60
2019-06-07T17:08:48.446Z,74.50
2019-06-07T17:11:17.065Z,74.50
2019-06-07T17:13:46.763Z,73.90
2019-06-07T17:16:15.778Z,74.20
2019-06-07T17:18:45.207Z,75.30
2019-06-07T17:21:13.867Z,75.60
2019-06-07T17:23:47.408Z,75.70
2019-06-07T17:26:19.307Z,75.40
2019-06-07T17:28:54.576Z,75.20
2019-06-07T17:31:25.364Z,76.70
2019-06-07T17:34:03.823Z,76.70
2019-06-07T17:36:42.313Z,76.90
2019-06-07T17:39:16.101Z,77.20
2019-06-07T17:42:00.038Z,77.50
2019-06-07T17:44:19.941Z,77.50
2019-06-07T17:46:49.996Z,77.70
2019-06-07T17:49:17.532Z,77.80
2019-06-07T17:52:00.219Z,78.40
2019-06-07T17:54:29.437Z,78.20
2019-06-07T17:57:05.118Z,78.70
2019-06-07T17:59:39.792Z,78.60
2019-06-07T18:02:14.903Z,78.70
2019-06-07T18:04:45.096Z,79.10
2019-06-07T18:07:18.678Z,79.70
2019-06-07T18:09:49.992Z,80.00
2019-06-07T18:12:20.953Z,80.40
2019-06-07T18:14:48.448Z,80.20
2019-06-07T18:17:33.506Z,80.80
2019-06-07T18:19:50.933Z,81.20
2019-06-07T18:22:18.868Z,81.40
2019-06-07T18:24:50.678Z,80.80
2019-06-07T18:27:19.087Z,81.20
2019-06-07T18:29:54.751Z,81.40
2019-06-07T18:32:25.484Z,82.60
2019-06-07T18:34:57.531Z,84.40
2019-06-07T18:37:24.809Z,86.30
2019-06-07T18:39:55.223Z,88.00
2019-06-07T18:42:24.819Z,90.00
2019-06-07T18:44:53.811Z,91.30
2019-06-07T18:47:21.757Z,92.60
2019-06-07T18:49:51.531Z,94.10
2019-06-07T18:52:29.879Z,96.30
2019-06-07T18:54:57.760Z,99.10
2019-06-07T18:57:32.076Z,99.90
2019-06-07T18:59:59.764Z,99.90
2019-06-07T19:02:28.561Z,99.90
2019-06-07T19:04:56.384Z,99.90
2019-06-07T19:07:26.011Z,99.90
2019-06-07T19:10:18.059Z,99.90
2019-06-07T19:12:55.233Z,99.90
2019-06-07T19:15:27.566Z,99.90
2019-06-07T19:18:09.700Z,99.90
2019-06-07T19:21:03.775Z,99.90
2019-06-07T19:24:00.146Z,99.90
2019-06-07T19:26:48.338Z,99.90
2019-06-07T19:29:21.489Z,99.90
2019-06-07T19:31:58.866Z,99.90
2019-06-07T19:34:31.246Z,99.90
2019-06-07T19:37:02.291Z,99.90
2019-06-07T19:39:35.585Z,99.90
2019-06-07T19:45:30.434Z,99.90
2019-06-07T19:48:18.947Z,99.90
2019-06-07T19:50:56.887Z,99.90
2019-06-07T19:53:31.608Z,99.90
2019-06-07T19:56:15.326Z,99.90
2019-06-07T19:58:44.594Z,99.90
2019-06-07T20:01:12.586Z,99.90
2019-06-07T20:04:00.073Z,99.90
2019-06-07T20:06:27.125Z,99.90
2019-06-07T20:08:58.813Z,99.90
2019-06-07T20:11:26.969Z,99.90
2019-06-07T20:13:57.148Z,99.90
2019-06-07T20:16:24.405Z,99.90
2019-06-07T20:18:54.350Z,99.90
2019-06-07T20:21:25.283Z,99.90
2019-06-07T20:23:53.025Z,99.90
2019-06-07T20:26:40.447Z,99.90
2019-06-07T20:29:31.006Z,99.90
2019-06-07T20:31:58.539Z,99.90
2019-06-07T20:34:32.750Z,99.90
2019-06-07T20:37:07.410Z,99.90
2019-06-07T20:39:38.558Z,99.90
2019-06-07T20:42:10.308Z,99.90
2019-06-07T20:44:37.562Z,99.90
2019-06-07T20:47:08.770Z,99.90
2019-06-07T20:49:42.122Z,99.90
2019-06-07T20:52:11.952Z,99.90
2019-06-07T20:54:42.810Z,99.90
2019-06-07T20:57:13.854Z,99.90
2019-06-07T20:59:42.830Z,99.90
2019-06-07T21:02:12.406Z,99.90
2019-06-07T21:04:39.984Z,99.90
2019-06-07T21:07:10.226Z,99.90
2019-06-07T21:09:49.320Z,99.90
2019-06-07T21:12:30.526Z,99.90
2019-06-07T21:15:06.220Z,99.90
2019-06-07T21:17:31.960Z,99.90
2019-06-07T21:20:02.966Z,99.90
2019-06-07T21:22:33.330Z,99.90
2019-06-07T21:25:04.981Z,99.90
2019-06-07T21:27:34.343Z,99.90
2019-06-07T21:30:01.477Z,99.90
2019-06-07T21:32:30.890Z,99.90
2019-06-07T21:35:17.279Z,99.90
2019-06-07T21:37:49.165Z,99.90
2019-06-07T21:40:20.240Z,99.90
2019-06-07T21:42:47.256Z,99.90
2019-06-07T21:45:14.719Z,99.90
2019-06-07T21:47:42.252Z,99.90
2019-06-07T21:50:10.809Z,99.90
2019-06-07T21:52:38.319Z,99.90
2019-06-07T21:55:09.250Z,99.90
2019-06-07T21:57:36.451Z,99.90
2019-06-07T22:00:08.975Z,99.90
2019-06-07T22:02:40.289Z,99.90
2019-06-07T22:05:09.486Z,99.90
2019-06-07T22:07:38.460Z,99.90
2019-06-07T22:10:07.876Z,99.90
2019-06-07T22:12:39.309Z,99.90
2019-06-07T22:15:24.157Z,99.90
2019-06-07T22:17:50.952Z,99.90
2019-06-07T22:20:21.049Z,99.90
2019-06-07T22:22:49.952Z,99.90
2019-06-07T22:25:28.216Z,99.90
2019-06-07T22:27:57.613Z,99.90
2019-06-07T22:30:24.997Z,99.90
2019-06-07T22:33:00.548Z,99.90
2019-06-07T22:35:28.506Z,99.90
2019-06-07T22:37:55.559Z,99.90
2019-06-07T22:40:26.599Z,99.90
2019-06-07T22:43:14.205Z,99.90
2019-06-07T22:45:44.049Z,99.90
2019-06-07T22:48:11.380Z,99.90
2019-06-07T22:50:40.686Z,99.90
2019-06-07T22:53:15.563Z,99.90
2019-06-07T22:55:50.975Z,99.90
2019-06-07T22:58:19.518Z,99.90
2019-06-07T23:00:50.596Z,99.90
2019-06-07T23:03:22.932Z,99.90
2019-06-07T23:05:50.109Z,99.90
2019-06-07T23:08:17.063Z,99.90
2019-06-07T23:10:48.049Z,99.90
2019-06-07T23:13:15.509Z,99.90
2019-06-07T23:15:43.734Z,99.90
2019-06-07T23:18:17.939Z,99.90
2019-06-07T23:20:45.881Z,99.90
2019-06-07T23:23:13.076Z,99.90
2019-06-07T23:25:40.952Z,99.90
2019-06-07T23:28:12.441Z,99.90
2019-06-07T23:30:40.439Z,99.90
2019-06-07T23:33:18.861Z,99.90
2019-06-07T23:35:48.282Z,99.90
2019-06-07T23:38:17.009Z,99.90
2019-06-07T23:40:49.573Z,99.90
2019-06-07T23:43:17.945Z,99.90
2019-06-07T23:45:45.516Z,99.90
2019-06-07T23:48:15.362Z,99.90
2019-06-07T23:50:46.839Z,99.90
2019-06-07T23:53:19.883Z,99.90
2019-06-07T23:55:50.991Z,99.90
2019-06-07T23:58:18.609Z,99.90
